createdAt,value
2022-09-15T00:01:42.134Z,13.62
2022-09-15T00:04:11.546Z,13.63
2022-09-15T00:06:39.749Z,13.63
2022-09-15T00:09:08.277Z,13.63
2022-09-15T00:11:42.186Z,13.54
2022-09-15T00:14:10.582Z,13.64
2022-09-15T00:17:05.137Z,13.64
2022-09-15T00:19:33.414Z,13.64
2022-09-15T00:22:01.858Z,13.64
2022-09-15T00:24:34.174Z,13.65
2022-09-15T00:27:02.418Z,13.67
2022-09-15T00:29:30.842Z,13.67
2022-09-15T00:31:59.180Z,13.68
2022-09-15T00:34:53.632Z,13.68
2022-09-15T00:37:21.917Z,13.68
2022-09-15T00:41:04.607Z,13.70
2022-09-15T00:43:55.665Z,13.70
2022-09-15T00:46:35.810Z,13.62
2022-09-15T00:49:03.937Z,13.70
2022-09-15T00:52:05.789Z,13.70
2022-09-15T00:54:51.057Z,13.69
2022-09-15T00:57:31.825Z,13.66
2022-09-15T01:00:56.892Z,13.64
2022-09-15T01:03:25.957Z,13.63
2022-09-15T01:06:43.988Z,13.59
2022-09-15T01:09:19.603Z,13.58
2022-09-15T01:12:13.416Z,13.56
2022-09-15T01:14:41.542Z,13.55
2022-09-15T01:17:12.417Z,13.53
2022-09-15T01:20:57.718Z,13.51
2022-09-15T01:24:05.249Z,13.49
2022-09-15T01:27:06.528Z,13.47
2022-09-15T01:31:02.940Z,13.45
2022-09-15T01:33:45.881Z,13.42
2022-09-15T01:36:18.167Z,13.41
2022-09-15T01:39:10.746Z,13.40
2022-09-15T01:41:49.720Z,13.38
2022-09-15T01:45:32.745Z,13.38
2022-09-15T01:48:03.666Z,13.35
2022-09-15T01:51:21.731Z,13.26
2022-09-15T01:53:52.837Z,13.35
2022-09-15T01:56:21.683Z,13.33
2022-09-15T01:58:51.402Z,13.34
2022-09-15T02:05:34.603Z,13.34
2022-09-15T02:08:13.770Z,13.24
2022-09-15T02:11:32.935Z,13.32
2022-09-15T02:14:24.318Z,13.32
2022-09-15T02:16:54.353Z,13.32
2022-09-15T02:19:41.926Z,13.32
2022-09-15T02:22:23.439Z,13.30
2022-09-15T02:26:12.790Z,13.29
2022-09-15T02:28:43.218Z,13.27
2022-09-15T02:32:06.817Z,13.27
2022-09-15T02:34:44.400Z,13.29
2022-09-15T02:37:14.182Z,13.30
2022-09-15T02:39:49.292Z,13.31
2022-09-15T02:42:28.854Z,13.29
2022-09-15T02:45:25.425Z,13.30
2022-09-15T02:47:53.634Z,13.31
2022-09-15T02:51:36.829Z,13.32
2022-09-15T02:54:05.101Z,13.29
2022-09-15T02:56:33.246Z,13.28
2022-09-15T02:59:01.791Z,13.26
2022-09-15T03:05:41.114Z,13.20
2022-09-15T03:08:09.775Z,13.04
2022-09-15T03:11:27.886Z,13.21
2022-09-15T03:13:58.606Z,13.22
2022-09-15T03:16:28.761Z,13.22
2022-09-15T03:19:01.457Z,13.13
2022-09-15T03:21:58.449Z,13.22
2022-09-15T03:24:27.090Z,13.21
2022-09-15T03:26:55.310Z,13.21
2022-09-15T03:29:23.589Z,13.21
2022-09-15T03:31:51.834Z,13.21
2022-09-15T03:34:25.291Z,13.20
2022-09-15T03:36:53.899Z,13.11
2022-09-15T03:39:22.081Z,13.19
2022-09-15T03:42:21.597Z,13.19
2022-09-15T03:44:49.834Z,13.18
2022-09-15T03:47:18.244Z,13.16
2022-09-15T03:53:53.686Z,13.13
2022-09-15T03:56:33.522Z,13.12
2022-09-15T03:59:03.471Z,13.03
2022-09-15T04:01:32.440Z,13.12
2022-09-15T04:04:00.774Z,13.10
2022-09-15T04:06:29.092Z,13.09
2022-09-15T04:09:00.253Z,13.07
2022-09-15T04:11:53.884Z,13.06
2022-09-15T04:14:22.134Z,13.04
2022-09-15T04:16:50.343Z,13.04
2022-09-15T04:19:18.546Z,13.04
2022-09-15T04:21:47.625Z,13.03
2022-09-15T04:24:20.402Z,13.02
2022-09-15T04:27:14.906Z,13.02
2022-09-15T04:29:43.804Z,13.00
2022-09-15T04:32:17.674Z,12.99
2022-09-15T04:34:45.991Z,12.98
2022-09-15T04:37:38.835Z,12.99
2022-09-15T04:40:09.197Z,12.99
2022-09-15T04:42:37.478Z,12.99
2022-09-15T04:45:07.344Z,12.91
2022-09-15T04:47:35.496Z,12.90
2022-09-15T04:50:04.018Z,13.01
2022-09-15T04:52:32.222Z,13.01
2022-09-15T04:55:00.373Z,13.01
2022-09-15T04:57:28.542Z,13.02
2022-09-15T04:59:56.854Z,13.02
2022-09-15T05:02:25.074Z,13.04
2022-09-15T05:04:53.422Z,13.04
2022-09-15T05:07:21.586Z,13.05
2022-09-15T05:09:49.788Z,13.08
2022-09-15T05:12:18.051Z,13.10
2022-09-15T05:14:46.276Z,13.12
2022-09-15T05:17:14.470Z,13.15
2022-09-15T05:19:42.680Z,13.16
2022-09-15T05:22:10.886Z,13.15
2022-09-15T05:24:39.206Z,13.14
2022-09-15T05:27:07.782Z,13.12
2022-09-15T05:29:35.950Z,13.09
2022-09-15T05:32:04.077Z,13.10
2022-09-15T05:34:32.222Z,13.10
2022-09-15T05:37:00.474Z,13.06
2022-09-15T05:39:28.897Z,13.05
2022-09-15T05:41:57.121Z,13.07
2022-09-15T05:44:25.415Z,13.10
2022-09-15T05:46:53.711Z,13.11
2022-09-15T05:49:22.005Z,13.12
2022-09-15T05:51:50.281Z,13.13
2022-09-15T05:54:18.593Z,13.11
2022-09-15T05:56:46.793Z,13.10
2022-09-15T05:59:14.949Z,13.11
2022-09-15T06:01:43.149Z,13.13
2022-09-15T06:04:12.455Z,13.14
2022-09-15T06:06:40.746Z,13.18
2022-09-15T06:09:09.679Z,13.19
2022-09-15T06:11:37.979Z,13.26
2022-09-15T06:14:06.241Z,13.30
2022-09-15T06:16:36.460Z,13.34
2022-09-15T06:19:05.441Z,13.37
2022-09-15T06:21:34.230Z,13.37
2022-09-15T06:24:07.300Z,13.37
2022-09-15T06:26:35.806Z,13.38
2022-09-15T06:29:05.660Z,13.42
2022-09-15T06:31:35.903Z,13.46
2022-09-15T06:36:50.837Z,13.53
2022-09-15T06:39:19.384Z,13.53
2022-09-15T06:42:01.758Z,13.55
2022-09-15T06:44:30.537Z,13.58
2022-09-15T06:46:58.717Z,13.62
2022-09-15T06:49:27.176Z,13.69
2022-09-15T06:51:56.558Z,13.75
2022-09-15T06:54:26.768Z,13.81
2022-09-15T06:56:55.000Z,13.84
2022-09-15T06:59:24.778Z,13.91
2022-09-15T07:02:02.675Z,14.00
2022-09-15T07:04:37.004Z,14.09
2022-09-15T07:07:05.365Z,14.17
2022-09-15T07:09:33.596Z,14.21
2022-09-15T07:12:02.095Z,14.25
2022-09-15T07:14:30.416Z,14.28
2022-09-15T07:16:58.636Z,14.32
2022-09-15T07:19:27.089Z,14.35
2022-09-15T07:21:55.307Z,14.37
2022-09-15T07:24:23.519Z,14.41
2022-09-15T07:26:52.263Z,14.48
2022-09-15T07:29:20.749Z,14.57
2022-09-15T07:31:49.146Z,14.62
2022-09-15T07:34:17.595Z,14.69
2022-09-15T07:36:45.836Z,14.74
2022-09-15T07:39:14.823Z,14.76
2022-09-15T07:41:43.273Z,14.69
2022-09-15T07:44:13.336Z,14.82
2022-09-15T07:46:41.547Z,14.86
2022-09-15T07:49:10.667Z,14.92
2022-09-15T07:51:38.806Z,14.97
2022-09-15T07:54:07.382Z,15.00
2022-09-15T07:56:35.837Z,15.06
2022-09-15T07:59:04.163Z,15.08
2022-09-15T08:01:32.565Z,15.14
2022-09-15T08:04:00.818Z,15.20
2022-09-15T08:06:29.629Z,15.26
2022-09-15T08:09:00.827Z,15.38
2022-09-15T08:11:29.970Z,15.59
2022-09-15T08:14:01.637Z,15.80
2022-09-15T08:16:30.196Z,15.93
2022-09-15T08:18:58.795Z,15.96
2022-09-15T08:21:27.930Z,16.13
2022-09-15T08:23:59.174Z,16.28
2022-09-15T08:26:29.370Z,16.41
2022-09-15T08:28:58.478Z,16.52
2022-09-15T08:31:26.872Z,16.56
2022-09-15T08:33:56.170Z,16.64
2022-09-15T08:36:28.169Z,16.75
2022-09-15T08:38:57.052Z,16.76
2022-09-15T08:41:30.278Z,16.71
2022-09-15T08:44:18.190Z,16.70
2022-09-15T08:47:04.982Z,16.67
2022-09-15T08:49:52.088Z,16.60
2022-09-15T08:52:28.684Z,16.53
2022-09-15T08:54:58.809Z,16.54
2022-09-15T08:57:27.206Z,16.61
2022-09-15T08:59:55.584Z,16.64
2022-09-15T09:02:48.511Z,16.65
2022-09-15T09:05:34.524Z,16.62
2022-09-15T09:08:34.685Z,16.63
2022-09-15T09:11:21.066Z,16.70
2022-09-15T09:14:17.136Z,16.80
2022-09-15T09:17:20.144Z,16.84
2022-09-15T09:19:53.208Z,16.80
2022-09-15T09:22:28.797Z,16.84
2022-09-15T09:24:59.700Z,16.94
2022-09-15T09:27:31.373Z,16.96
2022-09-15T09:30:21.706Z,16.94
2022-09-15T09:33:01.160Z,16.87
2022-09-15T09:35:41.645Z,16.81
2022-09-15T09:38:11.592Z,16.84
2022-09-15T09:40:41.399Z,16.89
2022-09-15T09:43:10.700Z,16.97
2022-09-15T09:45:39.244Z,17.19
2022-09-15T09:48:18.947Z,17.31
2022-09-15T09:50:48.050Z,17.36
2022-09-15T09:53:31.493Z,17.45
2022-09-15T09:56:12.073Z,17.56
2022-09-15T09:58:40.693Z,17.67
2022-09-15T10:01:12.144Z,17.68
2022-09-15T10:03:42.009Z,17.87
2022-09-15T10:06:19.865Z,18.19
2022-09-15T10:08:56.133Z,18.49
2022-09-15T10:11:59.298Z,18.62
2022-09-15T10:14:28.466Z,18.56
2022-09-15T10:17:08.593Z,18.47
2022-09-15T10:19:44.915Z,18.46
2022-09-15T10:22:31.929Z,18.47
2022-09-15T10:25:02.549Z,18.50
2022-09-15T10:27:34.922Z,18.48
2022-09-15T10:30:24.666Z,18.53
2022-09-15T10:32:52.867Z,18.73
2022-09-15T10:35:21.785Z,18.92
2022-09-15T10:38:08.435Z,19.14
2022-09-15T10:40:44.137Z,19.25
2022-09-15T10:43:38.773Z,19.24
2022-09-15T10:46:16.926Z,19.18
2022-09-15T10:49:23.439Z,19.05
2022-09-15T10:52:10.495Z,19.15
2022-09-15T10:54:47.933Z,19.33
2022-09-15T10:57:31.164Z,19.29
2022-09-15T11:00:10.759Z,19.35
2022-09-15T11:03:17.980Z,19.43
2022-09-15T11:06:00.856Z,19.47
2022-09-15T11:08:41.873Z,19.40
2022-09-15T11:11:24.384Z,19.62
2022-09-15T11:13:59.099Z,20.10
2022-09-15T11:16:38.964Z,20.12
2022-09-15T11:20:08.938Z,20.49
2022-09-15T11:23:09.548Z,20.70
2022-09-15T11:25:44.044Z,20.88
2022-09-15T11:28:29.434Z,20.87
2022-09-15T11:31:07.831Z,20.33
2022-09-15T11:33:58.405Z,20.54
2022-09-15T11:36:57.188Z,21.18
2022-09-15T11:39:37.190Z,21.46
2022-09-15T11:42:28.775Z,21.86
2022-09-15T11:44:59.409Z,22.02
2022-09-15T11:47:37.131Z,21.39
2022-09-15T11:50:11.322Z,20.77
2022-09-15T11:53:04.694Z,20.30
2022-09-15T11:55:40.712Z,20.66
2022-09-15T11:58:23.285Z,20.36
2022-09-15T12:00:56.122Z,20.11
2022-09-15T12:03:33.401Z,20.36
2022-09-15T12:06:12.673Z,20.38
2022-09-15T12:09:08.132Z,20.53
2022-09-15T12:11:42.624Z,20.83
2022-09-15T12:14:35.395Z,21.28
2022-09-15T12:17:09.957Z,21.40
2022-09-15T12:19:43.476Z,21.10
2022-09-15T12:22:17.696Z,20.65
2022-09-15T12:25:09.552Z,20.11
2022-09-15T12:27:37.840Z,19.75
2022-09-15T12:30:06.675Z,19.46
2022-09-15T12:32:35.260Z,19.20
2022-09-15T12:35:10.131Z,19.08
2022-09-15T12:37:48.234Z,18.98
2022-09-15T12:40:37.997Z,18.81
2022-09-15T12:43:12.955Z,18.59
2022-09-15T12:45:43.843Z,18.35
2022-09-15T12:48:17.556Z,18.15
2022-09-15T12:50:53.343Z,18.03
2022-09-15T12:53:29.115Z,17.89
2022-09-15T12:56:10.535Z,17.95
2022-09-15T12:58:38.755Z,18.30
2022-09-15T13:01:19.595Z,18.97
2022-09-15T13:03:51.034Z,19.73
2022-09-15T13:06:34.337Z,20.26
2022-09-15T13:09:05.822Z,20.11
2022-09-15T13:11:38.283Z,19.73
2022-09-15T13:14:20.787Z,19.28
2022-09-15T13:16:48.917Z,18.76
2022-09-15T13:19:31.423Z,18.51
2022-09-15T13:22:11.876Z,18.22
2022-09-15T13:25:02.346Z,18.06
2022-09-15T13:27:43.761Z,17.98
2022-09-15T13:30:44.734Z,18.08
2022-09-15T13:39:37.140Z,18.38
2022-09-15T13:42:30.523Z,18.24
2022-09-15T13:45:12.586Z,18.01
2022-09-15T13:47:59.576Z,17.87
2022-09-15T13:50:57.877Z,17.81
2022-09-15T13:53:43.677Z,17.85
2022-09-15T13:56:19.803Z,18.19
2022-09-15T13:59:12.395Z,19.21
2022-09-15T14:01:41.665Z,19.74
2022-09-15T14:04:17.556Z,19.50
2022-09-15T14:06:48.831Z,19.13
2022-09-15T14:09:21.933Z,18.75
2022-09-15T14:11:58.140Z,18.33
2022-09-15T14:14:32.385Z,18.12
2022-09-15T14:17:00.858Z,17.93
2022-09-15T14:19:33.962Z,17.78
2022-09-15T14:22:35.343Z,17.61
2022-09-15T14:25:15.084Z,17.45
2022-09-15T14:27:45.908Z,17.28
2022-09-15T14:30:32.263Z,17.18
2022-09-15T14:33:02.708Z,17.09
2022-09-15T14:36:22.640Z,17.01
2022-09-15T14:39:12.408Z,17.04
2022-09-15T14:42:20.245Z,17.08
2022-09-15T14:48:15.539Z,17.56
2022-09-15T14:51:33.155Z,17.72
2022-09-15T14:54:03.569Z,17.68
2022-09-15T14:56:36.610Z,17.81
2022-09-15T14:59:18.299Z,17.78
2022-09-15T15:02:12.515Z,17.62
2022-09-15T15:04:42.800Z,17.43
2022-09-15T15:07:17.207Z,17.28
2022-09-15T15:09:52.632Z,17.11
2022-09-15T15:12:26.325Z,16.89
2022-09-15T15:14:55.270Z,16.86
2022-09-15T15:17:45.445Z,16.95
2022-09-15T15:20:20.070Z,17.11
2022-09-15T15:23:10.242Z,17.11
2022-09-15T15:25:38.847Z,17.63
2022-09-15T15:28:27.132Z,18.27
2022-09-15T15:31:16.463Z,18.87
2022-09-15T15:34:00.344Z,19.21
2022-09-15T15:36:30.232Z,19.44
2022-09-15T15:39:05.260Z,19.54
2022-09-15T15:41:42.138Z,19.65
2022-09-15T15:44:16.380Z,19.76
2022-09-15T15:47:14.794Z,19.50
2022-09-15T15:49:56.224Z,19.16
2022-09-15T15:52:31.290Z,18.76
2022-09-15T15:54:59.617Z,18.48
2022-09-15T15:57:33.225Z,18.31
2022-09-15T16:00:01.869Z,18.02
2022-09-15T16:02:32.461Z,17.74
2022-09-15T16:05:00.957Z,17.49
2022-09-15T16:07:33.435Z,17.28
2022-09-15T16:10:02.185Z,17.06
2022-09-15T16:12:33.213Z,16.93
2022-09-15T16:15:14.404Z,16.76
2022-09-15T16:17:46.633Z,16.60
2022-09-15T16:20:17.038Z,16.47
2022-09-15T16:22:45.681Z,16.35
2022-09-15T16:25:40.264Z,16.25
2022-09-15T16:28:08.440Z,16.13
2022-09-15T16:30:36.643Z,16.04
2022-09-15T16:33:05.558Z,15.95
2022-09-15T16:35:39.462Z,15.88
2022-09-15T16:38:08.577Z,15.78
2022-09-15T16:40:39.667Z,15.68
2022-09-15T16:43:13.990Z,15.59
2022-09-15T16:45:43.029Z,15.49
2022-09-15T16:48:12.490Z,15.41
2022-09-15T16:50:50.526Z,15.32
2022-09-15T16:53:31.172Z,15.16
2022-09-15T16:55:59.543Z,15.16
2022-09-15T16:58:28.260Z,15.08
2022-09-15T17:00:57.173Z,15.02
2022-09-15T17:03:26.951Z,14.96
2022-09-15T17:05:57.706Z,14.90
2022-09-15T17:08:32.200Z,14.83
2022-09-15T17:11:02.982Z,14.75
2022-09-15T17:13:33.597Z,14.70
2022-09-15T17:16:02.354Z,14.63
2022-09-15T17:18:30.853Z,14.55
2022-09-15T17:20:59.629Z,14.49
2022-09-15T17:23:36.217Z,14.42
2022-09-15T17:26:09.861Z,14.34
2022-09-15T17:28:38.478Z,14.26
2022-09-15T17:31:17.094Z,14.20
2022-09-15T17:33:47.135Z,14.14
2022-09-15T17:36:15.995Z,14.07
2022-09-15T17:39:11.693Z,14.01
2022-09-15T17:41:40.059Z,14.02
2022-09-15T17:44:11.786Z,14.08
2022-09-15T17:46:40.200Z,14.01
2022-09-15T17:49:08.594Z,13.94
2022-09-15T17:51:36.839Z,13.87
2022-09-15T17:54:07.180Z,13.82
2022-09-15T17:56:35.466Z,13.77
2022-09-15T17:59:03.734Z,13.72
2022-09-15T18:01:31.973Z,13.67
2022-09-15T18:04:00.242Z,13.63
2022-09-15T18:06:28.530Z,13.59
2022-09-15T18:08:57.607Z,13.56
2022-09-15T18:11:27.299Z,13.54
2022-09-15T18:14:20.514Z,13.52
2022-09-15T18:16:48.722Z,13.49
2022-09-15T18:20:07.723Z,13.44
2022-09-15T18:22:36.146Z,13.40
2022-09-15T18:25:04.574Z,13.36
2022-09-15T18:27:32.754Z,13.32
2022-09-15T18:30:01.042Z,13.28
2022-09-15T18:33:20.611Z,13.23
2022-09-15T18:35:55.612Z,13.16
2022-09-15T18:38:24.305Z,13.12
2022-09-15T18:45:40.405Z,13.01
2022-09-15T18:48:12.694Z,12.94
2022-09-15T18:50:43.933Z,12.88
2022-09-15T18:53:13.192Z,12.81
2022-09-15T18:55:44.960Z,12.73
2022-09-15T18:59:03.832Z,12.65
2022-09-15T19:01:32.189Z,12.56
2022-09-15T19:04:00.513Z,12.48
2022-09-15T19:16:08.856Z,12.10
2022-09-15T19:19:02.575Z,12.03
2022-09-15T19:21:30.760Z,11.95
2022-09-15T19:23:59.210Z,11.87
2022-09-15T19:26:29.588Z,11.83
2022-09-15T19:28:58.207Z,11.78
2022-09-15T19:31:26.549Z,11.74
2022-09-15T19:34:19.742Z,11.69
2022-09-15T19:36:47.968Z,11.63
2022-09-15T19:39:41.505Z,11.59
2022-09-15T19:42:11.280Z,11.40
2022-09-15T19:44:41.111Z,11.54
2022-09-15T19:47:11.423Z,11.53
2022-09-15T19:49:39.682Z,11.52
2022-09-15T19:52:07.947Z,11.50
2022-09-15T19:54:36.338Z,11.49
2022-09-15T19:57:05.439Z,11.49
2022-09-15T19:59:34.129Z,11.49
2022-09-15T20:02:02.659Z,11.48
2022-09-15T20:07:16.399Z,11.48
2022-09-15T20:09:45.366Z,11.48
2022-09-15T20:12:13.953Z,11.46
2022-09-15T20:14:42.170Z,11.45
2022-09-15T20:17:10.891Z,11.43
2022-09-15T20:19:39.173Z,11.42
2022-09-15T20:22:10.977Z,11.42
2022-09-15T20:24:40.801Z,11.40
2022-09-15T20:27:41.145Z,11.38
2022-09-15T20:30:21.881Z,11.36
2022-09-15T20:32:50.031Z,11.33
2022-09-15T20:36:08.649Z,11.29
2022-09-15T20:38:37.843Z,11.24
2022-09-15T20:41:08.826Z,11.10
2022-09-15T20:43:38.906Z,11.19
2022-09-15T20:46:09.246Z,11.17
2022-09-15T20:48:39.341Z,11.15
2022-09-15T20:51:09.041Z,11.12
2022-09-15T20:53:38.794Z,11.11
2022-09-15T20:56:08.478Z,11.08
2022-09-15T20:58:37.925Z,11.05
2022-09-15T21:01:15.430Z,11.03
2022-09-15T21:03:45.205Z,10.99
2022-09-15T21:06:16.885Z,10.96
2022-09-15T21:08:47.590Z,10.94
2022-09-15T21:11:17.765Z,10.92
2022-09-15T21:13:47.301Z,10.90
2022-09-15T21:16:18.572Z,10.76
2022-09-15T21:18:47.946Z,10.86
2022-09-15T21:21:18.783Z,10.83
2022-09-15T21:24:42.721Z,10.81
2022-09-15T21:27:27.118Z,10.80
2022-09-15T21:29:55.330Z,10.78
2022-09-15T21:32:24.997Z,10.77
2022-09-15T21:34:56.117Z,10.76
2022-09-15T21:37:27.162Z,10.77
2022-09-15T21:39:56.065Z,10.78
2022-09-15T21:42:25.387Z,10.80
2022-09-15T21:44:54.696Z,10.82
2022-09-15T21:47:23.081Z,10.86
2022-09-15T21:49:52.661Z,10.79
2022-09-15T21:52:21.832Z,10.89
2022-09-15T21:54:50.235Z,10.90
2022-09-15T21:57:18.541Z,10.92
2022-09-15T21:59:46.689Z,10.92
2022-09-15T22:02:15.682Z,10.91
2022-09-15T22:04:44.013Z,10.90
2022-09-15T22:07:12.369Z,10.88
2022-09-15T22:09:40.745Z,10.87
2022-09-15T22:12:08.942Z,10.84
2022-09-15T22:14:38.087Z,10.77
2022-09-15T22:17:06.273Z,10.75
2022-09-15T22:19:34.450Z,10.72
2022-09-15T22:22:02.739Z,10.69
2022-09-15T22:24:31.128Z,10.66
2022-09-15T22:26:59.480Z,10.62
2022-09-15T22:29:27.829Z,10.58
2022-09-15T22:31:56.236Z,10.55
2022-09-15T22:34:26.151Z,10.54
2022-09-15T22:36:54.479Z,10.55
2022-09-15T22:39:27.007Z,10.54
2022-09-15T22:42:07.392Z,10.49
2022-09-15T22:44:35.627Z,10.57
2022-09-15T22:47:06.463Z,10.59
2022-09-15T22:49:34.652Z,10.61
2022-09-15T22:52:08.383Z,10.63
2022-09-15T22:54:36.471Z,10.65
2022-09-15T22:57:04.939Z,10.66
2022-09-15T22:59:35.207Z,10.68
2022-09-15T23:02:03.474Z,10.70
2022-09-15T23:04:31.683Z,10.71
2022-09-15T23:06:59.850Z,10.73
2022-09-15T23:09:29.111Z,10.76
2022-09-15T23:11:57.299Z,10.78
2022-09-15T23:14:25.487Z,10.78
2022-09-15T23:16:53.661Z,10.80
2022-09-15T23:19:21.862Z,10.81
2022-09-15T23:21:49.993Z,10.82
2022-09-15T23:24:18.276Z,10.83
2022-09-15T23:26:46.424Z,10.85
2022-09-15T23:29:15.217Z,10.86
2022-09-15T23:31:43.525Z,10.86
2022-09-15T23:34:15.134Z,10.85
2022-09-15T23:36:45.330Z,10.85
2022-09-15T23:39:13.622Z,10.84
2022-09-15T23:41:42.040Z,10.83
2022-09-15T23:44:10.495Z,10.82
2022-09-15T23:46:38.761Z,10.82
2022-09-15T23:49:07.502Z,10.80
2022-09-15T23:51:36.198Z,10.78
2022-09-15T23:54:04.866Z,10.76
2022-09-15T23:56:33.672Z,10.74
2022-09-15T23:59:32.994Z,10.72
